createdAt,value
2023-04-30T00:00:39.408Z,101416.94
2023-04-30T00:03:07.960Z,101412.31
2023-04-30T00:05:37.362Z,101415.50
2023-04-30T00:08:05.679Z,101413.84
2023-04-30T00:10:33.930Z,101426.03
2023-04-30T00:13:01.639Z,101417.81
2023-04-30T00:15:29.284Z,101431.81
2023-04-30T00:17:57.332Z,101429.75
2023-04-30T00:20:25.010Z,101438.06
2023-04-30T00:22:54.008Z,101435.72
2023-04-30T00:25:25.731Z,101430.47
2023-04-30T00:27:53.463Z,101437.53
2023-04-30T00:30:21.476Z,101438.44
2023-04-30T00:32:49.235Z,101444.75
2023-04-30T00:35:17.134Z,101438.78
2023-04-30T00:37:45.126Z,101437.88
2023-04-30T00:40:14.645Z,101442.25
2023-04-30T00:42:42.266Z,101443.56
2023-04-30T00:45:12.944Z,101448.38
2023-04-30T00:47:40.501Z,101452.69
2023-04-30T00:50:10.483Z,101454.69
2023-04-30T00:52:38.241Z,101456.16
2023-04-30T00:55:06.774Z,101451.69
2023-04-30T00:57:37.540Z,101462.28
2023-04-30T01:00:06.314Z,101463.69
2023-04-30T01:02:34.574Z,101456.25
2023-04-30T01:05:04.061Z,101470.22
2023-04-30T01:07:32.367Z,101467.50
2023-04-30T01:10:01.013Z,101468.38
2023-04-30T01:12:42.937Z,101469.59
2023-04-30T01:15:18.381Z,101473.41
2023-04-30T01:17:55.665Z,101472.38
2023-04-30T01:20:25.530Z,101473.66
2023-04-30T01:22:58.591Z,101482.69
2023-04-30T01:26:09.167Z,101470.72
2023-04-30T01:28:40.117Z,101475.47
2023-04-30T01:31:14.290Z,101478.31
2023-04-30T01:33:42.166Z,101473.69
2023-04-30T01:36:27.744Z,101470.72
2023-04-30T01:39:16.625Z,101466.44
2023-04-30T01:41:53.010Z,101476.06
2023-04-30T01:44:44.159Z,101476.19
2023-04-30T01:47:26.413Z,101477.47
2023-04-30T01:50:03.805Z,101478.78
2023-04-30T01:52:40.499Z,101482.22
2023-04-30T01:55:13.286Z,101484.09
2023-04-30T01:57:43.820Z,101488.88
2023-04-30T02:00:14.934Z,101498.13
2023-04-30T02:02:42.903Z,101507.75
2023-04-30T02:05:10.914Z,101501.44
2023-04-30T02:07:42.583Z,101508.06
2023-04-30T02:10:11.859Z,101509.16
2023-04-30T02:12:40.142Z,101511.06
2023-04-30T02:15:09.739Z,101517.94
2023-04-30T02:17:38.834Z,101519.94
2023-04-30T02:20:08.688Z,101523.97
2023-04-30T02:22:36.794Z,101514.97
2023-04-30T02:25:04.833Z,101524.81
2023-04-30T02:27:34.531Z,101524.13
2023-04-30T02:30:02.540Z,101530.88
2023-04-30T02:32:30.937Z,101525.03
2023-04-30T02:35:00.051Z,101537.28
2023-04-30T02:37:28.225Z,101532.53
2023-04-30T02:39:56.044Z,101535.25
2023-04-30T02:42:24.495Z,101544.16
2023-04-30T02:44:52.137Z,101531.44
2023-04-30T02:47:19.800Z,101541.88
2023-04-30T02:49:48.703Z,101534.56
2023-04-30T02:52:18.201Z,101534.19
2023-04-30T02:54:45.987Z,101548.31
2023-04-30T02:57:14.027Z,101544.59
2023-04-30T02:59:45.796Z,101542.94
2023-04-30T03:02:13.642Z,101549.09
2023-04-30T03:04:42.694Z,101547.78
2023-04-30T03:07:10.693Z,101550.03
2023-04-30T03:09:40.176Z,101551.84
2023-04-30T03:12:07.899Z,101553.84
2023-04-30T03:14:36.033Z,101551.84
2023-04-30T03:17:03.674Z,101553.72
2023-04-30T03:19:32.163Z,101557.97
2023-04-30T03:22:00.039Z,101556.31
2023-04-30T03:24:27.774Z,101557.47
2023-04-30T03:26:57.927Z,101561.81
2023-04-30T03:29:26.034Z,101561.91
2023-04-30T03:31:53.818Z,101561.09
2023-04-30T03:34:21.598Z,101565.56
2023-04-30T03:36:49.737Z,101559.88
2023-04-30T03:39:17.509Z,101558.06
2023-04-30T03:41:45.234Z,101563.78
2023-04-30T03:44:16.293Z,101570.50
2023-04-30T03:46:44.212Z,101570.13
2023-04-30T03:49:12.143Z,101570.59
2023-04-30T03:51:42.764Z,101576.63
2023-04-30T03:54:10.268Z,101578.69
2023-04-30T03:56:39.311Z,101585.19
2023-04-30T03:59:07.224Z,101580.34
2023-04-30T04:01:36.486Z,101582.25
2023-04-30T04:04:04.840Z,101590.09
2023-04-30T04:06:32.684Z,101587.47
2023-04-30T04:09:00.554Z,101589.50
2023-04-30T04:11:29.393Z,101602.94
2023-04-30T04:13:57.110Z,101592.63
2023-04-30T04:16:25.113Z,101597.72
2023-04-30T04:18:54.491Z,101599.84
2023-04-30T04:21:22.353Z,101604.84
2023-04-30T04:23:50.684Z,101602.59
2023-04-30T04:26:21.564Z,101607.88
2023-04-30T04:28:49.752Z,101605.00
2023-04-30T04:31:17.476Z,101609.19
2023-04-30T04:33:46.010Z,101609.78
2023-04-30T04:36:16.199Z,101613.56
2023-04-30T04:38:44.250Z,101624.09
2023-04-30T04:41:12.317Z,101620.53
2023-04-30T04:43:40.008Z,101629.31
2023-04-30T04:46:09.375Z,101627.78
2023-04-30T04:48:39.095Z,101630.91
2023-04-30T04:51:07.111Z,101635.75
2023-04-30T04:53:36.873Z,101637.19
2023-04-30T04:56:04.800Z,101645.22
2023-04-30T04:58:32.851Z,101652.25
2023-04-30T05:01:01.629Z,101652.34
2023-04-30T05:03:29.823Z,101653.41
2023-04-30T05:05:57.829Z,101659.44
2023-04-30T05:08:26.960Z,101659.91
2023-04-30T05:10:56.050Z,101651.47
2023-04-30T05:13:23.875Z,101660.97
2023-04-30T05:15:54.020Z,101672.84
2023-04-30T05:18:21.784Z,101673.22
2023-04-30T05:20:49.669Z,101677.25
2023-04-30T05:23:17.892Z,101682.69
2023-04-30T05:25:45.709Z,101686.25
2023-04-30T05:28:14.756Z,101687.22
2023-04-30T05:30:43.737Z,101684.44
2023-04-30T05:33:11.738Z,101689.03
2023-04-30T05:35:39.609Z,101692.53
2023-04-30T05:38:07.673Z,101695.84
2023-04-30T05:40:35.447Z,101698.72
2023-04-30T05:43:03.108Z,101703.94
2023-04-30T05:45:33.309Z,101712.81
2023-04-30T05:48:02.343Z,101711.81
2023-04-30T05:50:30.116Z,101702.78
2023-04-30T05:52:58.230Z,101718.69
2023-04-30T05:55:25.932Z,101713.22
2023-04-30T05:57:53.555Z,101719.00
2023-04-30T06:00:21.886Z,101724.91
2023-04-30T06:02:51.084Z,101728.09
2023-04-30T06:05:18.861Z,101726.78
2023-04-30T06:07:47.642Z,101730.84
2023-04-30T06:10:15.324Z,101731.91
2023-04-30T06:12:43.393Z,101733.56
2023-04-30T06:15:11.553Z,101735.22
2023-04-30T06:17:39.363Z,101733.91
2023-04-30T06:20:10.534Z,101748.41
2023-04-30T06:22:38.272Z,101754.47
2023-04-30T06:25:07.038Z,101755.75
2023-04-30T06:27:35.686Z,101746.63
2023-04-30T06:30:03.435Z,101755.66
2023-04-30T06:32:31.712Z,101755.19
2023-04-30T06:34:59.983Z,101754.91
2023-04-30T06:37:29.835Z,101754.78
2023-04-30T06:39:58.132Z,101752.66
2023-04-30T06:42:26.118Z,101755.97
2023-04-30T06:44:55.364Z,101754.34
2023-04-30T06:47:24.240Z,101758.53
2023-04-30T06:49:52.511Z,101756.00
2023-04-30T06:52:20.506Z,101758.31
2023-04-30T06:54:49.896Z,101765.56
2023-04-30T06:57:17.585Z,101759.25
2023-04-30T06:59:45.619Z,101758.91
2023-04-30T07:02:13.369Z,101765.09
2023-04-30T07:04:41.113Z,101762.47
2023-04-30T07:07:10.090Z,101755.63
2023-04-30T07:09:37.811Z,101761.31
2023-04-30T07:12:06.911Z,101769.88
2023-04-30T07:14:35.022Z,101765.34
2023-04-30T07:17:02.747Z,101768.44
2023-04-30T07:19:30.838Z,101766.59
2023-04-30T07:21:58.537Z,101765.16
2023-04-30T07:24:26.861Z,101768.16
2023-04-30T07:26:54.518Z,101773.47
2023-04-30T07:29:23.574Z,101768.16
2023-04-30T07:31:52.964Z,101768.88
2023-04-30T07:34:20.741Z,101770.41
2023-04-30T07:36:49.795Z,101771.97
2023-04-30T07:39:17.841Z,101774.44
2023-04-30T07:41:46.326Z,101785.03
2023-04-30T07:44:14.058Z,101777.44
2023-04-30T07:46:43.314Z,101778.50
2023-04-30T07:49:11.887Z,101783.94
2023-04-30T07:51:40.118Z,101784.91
2023-04-30T07:54:07.853Z,101782.91
2023-04-30T07:56:36.372Z,101790.63
2023-04-30T07:59:04.138Z,101792.03
2023-04-30T08:01:32.571Z,101801.53
2023-04-30T08:04:01.661Z,101801.09
2023-04-30T08:06:29.779Z,101794.16
2023-04-30T08:08:57.578Z,101806.03
2023-04-30T08:11:26.222Z,101799.56
2023-04-30T08:13:53.935Z,101794.69
2023-04-30T08:16:21.840Z,101801.69
2023-04-30T08:18:49.711Z,101805.13
2023-04-30T08:21:19.435Z,101807.84
2023-04-30T08:23:47.199Z,101814.28
2023-04-30T08:26:15.413Z,101811.22
2023-04-30T08:28:43.234Z,101814.38
2023-04-30T08:31:11.069Z,101823.19
2023-04-30T08:33:39.689Z,101819.78
2023-04-30T08:36:07.747Z,101829.34
2023-04-30T08:38:37.293Z,101826.66
2023-04-30T08:41:12.885Z,101830.50
2023-04-30T08:43:41.697Z,101830.72
2023-04-30T08:46:09.566Z,101827.41
2023-04-30T08:48:38.711Z,101830.81
2023-04-30T08:51:06.550Z,101832.31
2023-04-30T08:53:38.622Z,101834.69
2023-04-30T08:56:07.015Z,101832.06
2023-04-30T08:58:34.665Z,101833.72
2023-04-30T09:01:03.145Z,101841.16
2023-04-30T09:03:32.140Z,101850.16
2023-04-30T09:06:00.417Z,101849.00
2023-04-30T09:08:45.320Z,101841.38
2023-04-30T09:11:27.926Z,101847.81
2023-04-30T09:13:57.351Z,101853.41
2023-04-30T09:16:26.779Z,101839.19
2023-04-30T09:18:55.155Z,101838.13
2023-04-30T09:21:33.159Z,101862.19
2023-04-30T09:24:04.035Z,101876.25
2023-04-30T09:26:36.237Z,101859.75
2023-04-30T09:29:08.978Z,101851.63
2023-04-30T09:31:37.170Z,101850.31
2023-04-30T09:34:06.057Z,101843.28
2023-04-30T09:36:34.349Z,101851.84
2023-04-30T09:39:14.746Z,101856.28
2023-04-30T09:41:43.750Z,101862.75
2023-04-30T09:44:29.666Z,101865.56
2023-04-30T09:46:58.510Z,101851.81
2023-04-30T09:49:27.253Z,101862.34
2023-04-30T09:51:57.547Z,101868.09
2023-04-30T09:54:30.194Z,101850.25
2023-04-30T09:57:00.158Z,101842.31
2023-04-30T09:59:31.794Z,101833.28
2023-04-30T10:02:02.230Z,101844.56
2023-04-30T10:04:33.305Z,101840.50
2023-04-30T10:07:03.577Z,101851.56
2023-04-30T10:09:39.969Z,101833.97
2023-04-30T10:12:15.196Z,101833.44
2023-04-30T10:14:49.553Z,101828.25
2023-04-30T10:17:19.680Z,101853.94
2023-04-30T10:19:50.505Z,101832.69
2023-04-30T10:22:19.848Z,101843.47
2023-04-30T10:24:49.718Z,101836.22
2023-04-30T10:27:19.179Z,101831.81
2023-04-30T10:29:48.671Z,101810.38
2023-04-30T10:32:17.351Z,101821.13
2023-04-30T10:34:53.015Z,101813.97
2023-04-30T10:37:29.903Z,101825.28
2023-04-30T10:39:59.036Z,101827.75
2023-04-30T10:42:27.148Z,101825.28
2023-04-30T10:44:56.749Z,101806.81
2023-04-30T10:47:30.363Z,101810.09
2023-04-30T10:50:03.953Z,101813.97
2023-04-30T10:52:32.983Z,101805.41
2023-04-30T10:55:05.966Z,101797.13
2023-04-30T10:57:41.654Z,101805.41
2023-04-30T11:00:26.932Z,101807.31
2023-04-30T11:02:58.599Z,101814.47
2023-04-30T11:05:38.729Z,101784.59
2023-04-30T11:08:07.424Z,101786.81
2023-04-30T11:10:36.949Z,101789.75
2023-04-30T11:13:07.235Z,101776.16
2023-04-30T11:15:42.013Z,101785.47
2023-04-30T11:18:10.461Z,101781.88
2023-04-30T11:20:41.864Z,101787.84
2023-04-30T11:23:11.006Z,101779.59
2023-04-30T11:25:44.715Z,101764.50
2023-04-30T11:28:16.603Z,101771.59
2023-04-30T11:30:53.904Z,101781.59
2023-04-30T11:33:22.801Z,101771.97
2023-04-30T11:35:53.304Z,101795.78
2023-04-30T11:38:23.341Z,101769.50
2023-04-30T11:40:52.548Z,101761.16
2023-04-30T11:43:25.352Z,101770.16
2023-04-30T11:46:05.628Z,101789.78
2023-04-30T11:48:35.552Z,101768.72
2023-04-30T11:51:14.944Z,101761.53
2023-04-30T11:53:43.358Z,101765.69
2023-04-30T11:56:12.499Z,101758.97
2023-04-30T11:58:40.481Z,101751.91
2023-04-30T12:01:10.019Z,101737.84
2023-04-30T12:03:45.955Z,101738.09
2023-04-30T12:06:14.513Z,101752.31
2023-04-30T12:08:43.239Z,101759.63
2023-04-30T12:11:32.520Z,101763.50
2023-04-30T12:14:03.737Z,101772.06
2023-04-30T12:16:42.190Z,101759.50
2023-04-30T12:19:10.567Z,101764.91
2023-04-30T12:21:39.087Z,101769.69
2023-04-30T12:24:07.537Z,101747.91
2023-04-30T12:26:40.215Z,101765.94
2023-04-30T12:29:14.250Z,101759.09
2023-04-30T12:31:43.526Z,101763.50
2023-04-30T12:34:14.318Z,101763.50
2023-04-30T12:36:43.452Z,101749.47
2023-04-30T12:39:13.199Z,101749.53
2023-04-30T12:41:43.963Z,101743.88
2023-04-30T12:44:15.623Z,101754.50
2023-04-30T12:46:44.354Z,101743.00
2023-04-30T12:49:12.355Z,101731.75
2023-04-30T12:51:44.994Z,101727.69
2023-04-30T12:54:12.722Z,101719.97
2023-04-30T12:56:57.872Z,101722.72
2023-04-30T12:59:25.556Z,101725.13
2023-04-30T13:01:54.579Z,101730.69
2023-04-30T13:04:22.310Z,101736.69
2023-04-30T13:06:50.736Z,101728.16
2023-04-30T13:09:18.432Z,101735.38
2023-04-30T13:11:48.745Z,101729.50
2023-04-30T13:14:17.975Z,101724.56
2023-04-30T13:16:46.068Z,101721.88
2023-04-30T13:19:13.777Z,101719.56
2023-04-30T13:21:42.180Z,101713.38
2023-04-30T13:24:10.161Z,101715.19
2023-04-30T13:26:38.137Z,101713.75
2023-04-30T13:29:07.809Z,101713.69
2023-04-30T13:31:36.316Z,101716.94
2023-04-30T13:34:04.157Z,101697.03
2023-04-30T13:36:34.007Z,101701.38
2023-04-30T13:39:01.655Z,101689.94
2023-04-30T13:41:29.677Z,101694.63
2023-04-30T13:43:57.624Z,101702.00
2023-04-30T13:46:27.074Z,101698.69
2023-04-30T13:48:55.128Z,101690.31
2023-04-30T13:51:22.817Z,101692.66
2023-04-30T13:53:51.641Z,101685.69
2023-04-30T13:56:19.372Z,101704.88
2023-04-30T13:58:47.600Z,101687.22
2023-04-30T14:01:15.939Z,101680.38
2023-04-30T14:03:46.976Z,101688.22
2023-04-30T14:06:14.807Z,101687.97
2023-04-30T14:08:42.573Z,101687.16
2023-04-30T14:13:56.713Z,101678.13
2023-04-30T14:16:24.629Z,101678.75
2023-04-30T14:18:54.060Z,101678.31
2023-04-30T14:21:21.771Z,101687.69
2023-04-30T14:23:49.720Z,101677.13
2023-04-30T14:26:17.467Z,101684.09
2023-04-30T14:28:45.569Z,101677.97
2023-04-30T14:31:13.268Z,101674.22
2023-04-30T14:33:42.032Z,101678.69
2023-04-30T14:36:11.183Z,101655.19
2023-04-30T14:38:38.988Z,101658.94
2023-04-30T14:41:07.117Z,101679.66
2023-04-30T14:43:35.220Z,101658.03
2023-04-30T14:46:03.395Z,101666.56
2023-04-30T14:48:31.638Z,101670.31
2023-04-30T14:50:59.325Z,101659.69
2023-04-30T14:53:28.415Z,101660.72
2023-04-30T14:55:57.171Z,101663.03
2023-04-30T14:58:25.633Z,101659.31
2023-04-30T15:00:53.378Z,101655.47
2023-04-30T15:03:21.246Z,101657.53
2023-04-30T15:05:50.248Z,101652.88
2023-04-30T15:08:17.976Z,101653.28
2023-04-30T15:10:47.076Z,101653.41
2023-04-30T15:13:15.903Z,101662.13
2023-04-30T15:15:43.637Z,101664.25
2023-04-30T15:18:11.374Z,101653.91
2023-04-30T15:20:39.529Z,101663.13
2023-04-30T15:23:08.121Z,101672.16
2023-04-30T15:25:35.837Z,101659.94
2023-04-30T15:28:05.331Z,101662.94
2023-04-30T15:30:33.032Z,101651.91
2023-04-30T15:33:00.667Z,101654.13
2023-04-30T15:35:29.670Z,101665.13
2023-04-30T15:37:57.402Z,101662.06
2023-04-30T15:40:25.261Z,101666.38
2023-04-30T15:42:53.334Z,101667.19
2023-04-30T15:45:25.200Z,101657.69
2023-04-30T15:47:53.566Z,101659.75
2023-04-30T15:50:21.341Z,101656.13
2023-04-30T15:52:50.193Z,101664.91
2023-04-30T15:55:18.334Z,101670.88
2023-04-30T15:57:46.596Z,101655.66
2023-04-30T16:00:15.631Z,101653.97
2023-04-30T16:02:44.978Z,101663.69
2023-04-30T16:05:12.823Z,101669.22
2023-04-30T16:07:43.722Z,101659.09
2023-04-30T16:10:12.959Z,101657.53
2023-04-30T16:12:42.221Z,101656.00
2023-04-30T16:15:11.710Z,101651.75
2023-04-30T16:17:39.847Z,101653.38
2023-04-30T16:20:10.408Z,101657.28
2023-04-30T16:22:38.687Z,101648.38
2023-04-30T16:25:09.817Z,101647.56
2023-04-30T16:27:37.826Z,101644.22
2023-04-30T16:30:06.684Z,101639.63
2023-04-30T16:32:35.635Z,101646.31
2023-04-30T16:35:03.268Z,101647.16
2023-04-30T16:37:32.438Z,101643.41
2023-04-30T16:40:01.848Z,101636.41
2023-04-30T16:42:29.970Z,101632.56
2023-04-30T16:44:58.214Z,101629.91
2023-04-30T16:47:26.013Z,101632.75
2023-04-30T16:49:54.404Z,101627.53
2023-04-30T16:52:23.278Z,101615.66
2023-04-30T16:54:52.376Z,101629.13
2023-04-30T16:57:20.084Z,101628.19
2023-04-30T16:59:49.025Z,101628.41
2023-04-30T17:02:16.735Z,101628.13
2023-04-30T17:04:44.598Z,101633.22
2023-04-30T17:07:13.028Z,101629.88
2023-04-30T17:09:41.623Z,101614.25
2023-04-30T17:12:12.156Z,101626.09
2023-04-30T17:14:39.618Z,101640.34
2023-04-30T17:17:08.119Z,101624.09
2023-04-30T17:19:35.839Z,101622.97
2023-04-30T17:22:04.067Z,101620.53
2023-04-30T17:24:31.828Z,101619.56
2023-04-30T17:27:00.871Z,101621.44
2023-04-30T17:29:30.292Z,101630.31
2023-04-30T17:31:58.024Z,101628.75
2023-04-30T17:34:27.896Z,101636.16
2023-04-30T17:36:55.691Z,101638.38
2023-04-30T17:39:23.940Z,101627.66
2023-04-30T17:41:52.153Z,101617.81
2023-04-30T17:44:19.870Z,101621.69
2023-04-30T17:46:49.517Z,101624.22
2023-04-30T17:49:17.764Z,101612.34
2023-04-30T17:51:45.538Z,101612.69
2023-04-30T17:54:13.826Z,101607.75
2023-04-30T17:56:42.188Z,101607.53
2023-04-30T17:59:10.222Z,101607.88
2023-04-30T18:01:38.359Z,101608.44
2023-04-30T18:04:10.645Z,101608.44
2023-04-30T18:06:38.773Z,101599.91
2023-04-30T18:09:06.605Z,101603.81
2023-04-30T18:11:34.787Z,101599.69
2023-04-30T18:14:02.628Z,101601.06
2023-04-30T18:16:31.551Z,101608.50
2023-04-30T18:18:59.323Z,101603.28
2023-04-30T18:21:28.454Z,101608.25
2023-04-30T18:23:57.069Z,101602.19
2023-04-30T18:26:25.241Z,101597.78
2023-04-30T18:28:53.526Z,101600.00
2023-04-30T18:31:21.791Z,101609.38
2023-04-30T18:33:49.550Z,101610.72
2023-04-30T18:36:17.338Z,101598.63
2023-04-30T18:38:47.702Z,101590.34
2023-04-30T18:41:15.346Z,101593.59
2023-04-30T18:43:45.282Z,101601.00
2023-04-30T18:46:13.446Z,101594.94
2023-04-30T18:48:41.117Z,101599.28
2023-04-30T18:51:09.205Z,101604.22
2023-04-30T18:53:37.181Z,101601.44
2023-04-30T18:56:08.715Z,101605.81
2023-04-30T18:58:36.386Z,101612.69
2023-04-30T19:01:04.321Z,101617.31
2023-04-30T19:03:34.244Z,101619.56
2023-04-30T19:06:02.738Z,101612.09
2023-04-30T19:08:30.540Z,101605.94
2023-04-30T19:10:58.231Z,101608.38
2023-04-30T19:13:28.652Z,101610.53
2023-04-30T19:15:56.419Z,101617.59
2023-04-30T19:18:25.378Z,101622.53
2023-04-30T19:21:00.274Z,101609.28
2023-04-30T19:23:30.785Z,101610.59
2023-04-30T19:25:58.444Z,101600.34
2023-04-30T19:28:27.899Z,101608.84
2023-04-30T19:30:57.025Z,101612.19
2023-04-30T19:33:25.739Z,101607.78
2023-04-30T19:35:54.566Z,101613.50
2023-04-30T19:38:24.134Z,101611.84
2023-04-30T19:40:53.056Z,101608.56
2023-04-30T19:43:20.971Z,101610.66
2023-04-30T19:45:52.628Z,101608.97
2023-04-30T19:48:21.252Z,101612.81
2023-04-30T19:50:49.487Z,101622.88
2023-04-30T19:53:19.539Z,101606.44
2023-04-30T19:55:47.220Z,101615.22
2023-04-30T19:58:15.330Z,101619.84
2023-04-30T20:00:45.479Z,101614.59
2023-04-30T20:03:15.666Z,101620.00
2023-04-30T20:05:43.749Z,101606.75
2023-04-30T20:08:11.996Z,101614.69
2023-04-30T20:10:40.936Z,101622.38
2023-04-30T20:13:10.163Z,101625.84
2023-04-30T20:15:39.023Z,101625.91
2023-04-30T20:18:06.798Z,101622.25
2023-04-30T20:20:36.664Z,101609.22
2023-04-30T20:23:13.808Z,101608.13
2023-04-30T20:25:43.995Z,101600.75
2023-04-30T20:28:11.972Z,101613.34
2023-04-30T20:30:42.836Z,101608.56
2023-04-30T20:33:11.840Z,101611.25
2023-04-30T20:35:42.248Z,101618.63
2023-04-30T20:38:10.744Z,101602.41
2023-04-30T20:40:40.555Z,101613.38
2023-04-30T20:43:10.264Z,101613.84
2023-04-30T20:45:38.703Z,101619.28
2023-04-30T20:48:08.500Z,101612.66
2023-04-30T20:50:36.972Z,101614.56
2023-04-30T20:53:06.044Z,101608.25
2023-04-30T20:55:34.989Z,101609.06
2023-04-30T20:58:03.666Z,101609.53
2023-04-30T21:00:32.042Z,101618.09
2023-04-30T21:03:00.188Z,101611.53
2023-04-30T21:05:29.997Z,101614.22
2023-04-30T21:08:01.590Z,101617.47
2023-04-30T21:10:35.344Z,101616.06
2023-04-30T21:13:05.789Z,101614.56
2023-04-30T21:15:36.690Z,101611.00
2023-04-30T21:18:04.576Z,101616.84
2023-04-30T21:20:33.148Z,101618.16
2023-04-30T21:23:03.570Z,101615.75
2023-04-30T21:25:32.580Z,101614.25
2023-04-30T21:28:00.650Z,101604.22
2023-04-30T21:30:28.612Z,101613.94
2023-04-30T21:32:59.202Z,101619.34
2023-04-30T21:35:27.718Z,101621.09
2023-04-30T21:37:56.983Z,101608.47
2023-04-30T21:40:24.691Z,101613.88
2023-04-30T21:42:54.138Z,101613.88
2023-04-30T21:45:22.222Z,101611.97
2023-04-30T21:47:50.336Z,101621.25
2023-04-30T21:50:18.588Z,101615.13
2023-04-30T21:52:46.238Z,101609.47
2023-04-30T21:55:13.992Z,101606.41
2023-04-30T21:57:42.905Z,101600.59
2023-04-30T22:00:14.429Z,101604.84
2023-04-30T22:02:42.769Z,101600.25
2023-04-30T22:05:11.444Z,101602.25
2023-04-30T22:07:39.247Z,101607.22
2023-04-30T22:10:08.564Z,101602.69
2023-04-30T22:12:36.613Z,101605.22
2023-04-30T22:15:05.752Z,101605.38
2023-04-30T22:17:36.469Z,101596.84
2023-04-30T22:20:04.873Z,101596.09
2023-04-30T22:22:33.004Z,101601.97
2023-04-30T22:25:01.159Z,101601.03
2023-04-30T22:27:28.842Z,101599.00
2023-04-30T22:29:56.697Z,101601.41
2023-04-30T22:32:25.280Z,101596.06
2023-04-30T22:34:54.422Z,101593.25
2023-04-30T22:37:22.195Z,101592.88
2023-04-30T22:39:50.925Z,101591.09
2023-04-30T22:42:18.727Z,101591.94
2023-04-30T22:44:46.782Z,101588.81
2023-04-30T22:47:14.918Z,101597.59
2023-04-30T22:49:42.923Z,101588.19
2023-04-30T22:52:12.050Z,101588.34
2023-04-30T22:54:41.466Z,101589.06
2023-04-30T22:57:09.226Z,101589.44
2023-04-30T22:59:37.248Z,101578.53
2023-04-30T23:02:04.997Z,101575.44
2023-04-30T23:04:34.154Z,101574.25
2023-04-30T23:07:01.936Z,101577.72
2023-04-30T23:09:31.262Z,101574.50
2023-04-30T23:11:58.941Z,101573.53
2023-04-30T23:14:27.886Z,101573.69
2023-04-30T23:16:55.662Z,101567.16
2023-04-30T23:19:23.483Z,101566.69
2023-04-30T23:21:52.162Z,101562.44
2023-04-30T23:24:20.192Z,101568.97
2023-04-30T23:26:49.297Z,101567.31
2023-04-30T23:29:17.299Z,101566.81
2023-04-30T23:31:44.993Z,101566.81
2023-04-30T23:34:13.027Z,101562.66
2023-04-30T23:36:40.758Z,101554.47
2023-04-30T23:39:11.002Z,101547.34
2023-04-30T23:41:38.789Z,101552.47
2023-04-30T23:44:07.971Z,101548.66
2023-04-30T23:46:36.325Z,101549.16
2023-04-30T23:49:04.082Z,101548.31
2023-04-30T23:51:33.346Z,101545.47
2023-04-30T23:54:01.461Z,101547.94
2023-04-30T23:56:29.485Z,101554.03
2023-04-30T23:58:57.209Z,101545.69
